Time;durP1;ratioP1;P1;durP2;ratioP2;P2;SDS_P1;SDS_P2;PMS_P1;PMS_P2;Temp;Humidity;BMP_temperature;BMP_pressure;BME280_temperature;BME280_humidity;BME280_pressure;Samples;Min_cycle;Max_cycle;Signal;HPM_P1;HPM_P2
2022/10/25 00:01:26;;;;;;;;;;;10.30;99.90;;;;;;4951753;28;19933;-54
2022/10/25 00:03:54;;;;;;;;;;;10.30;99.90;;;;;;4934762;29;19937;-53
2022/10/25 00:06:22;;;;;;;;;;;10.30;99.90;;;;;;4945806;28;20491;-54
2022/10/25 00:08:49;;;;;;;;;;;10.30;99.90;;;;;;4951866;28;19927;-53
2022/10/25 00:11:22;;;;;;;;;;;10.20;99.90;;;;;;4951831;28;19931;-54
2022/10/25 00:13:50;;;;;;;;;;;10.20;99.90;;;;;;4948147;28;19927;-53
2022/10/25 00:16:20;;;;;;;;;;;10.20;99.90;;;;;;4949686;29;19926;-53
2022/10/25 00:18:47;;;;;;;;;;;10.20;99.90;;;;;;4952022;28;20395;-53
2022/10/25 00:21:15;;;;;;;;;;;10.20;99.90;;;;;;4950800;29;19931;-54
2022/10/25 00:23:42;;;;;;;;;;;10.10;99.90;;;;;;4950256;28;20286;-53
2022/10/25 00:26:10;;;;;;;;;;;10.10;99.90;;;;;;4953108;28;19932;-53
2022/10/25 00:28:38;;;;;;;;;;;10.10;99.90;;;;;;4952034;28;19948;-53
2022/10/25 00:31:07;;;;;;;;;;;10.00;99.90;;;;;;4952139;28;19926;-54
2022/10/25 00:33:35;;;;;;;;;;;10.00;99.90;;;;;;4950996;28;20501;-53
2022/10/25 00:36:06;;;;;;;;;;;9.90;99.90;;;;;;4951069;28;19930;-54
2022/10/25 00:38:34;;;;;;;;;;;9.90;99.90;;;;;;4952062;28;19926;-53
2022/10/25 00:41:02;;;;;;;;;;;9.90;99.90;;;;;;4951825;29;20444;-53
2022/10/25 00:43:30;;;;;;;;;;;9.90;99.90;;;;;;4951563;29;19927;-53
2022/10/25 00:45:58;;;;;;;;;;;9.90;99.90;;;;;;4950718;28;19934;-53
2022/10/25 00:48:25;;;;;;;;;;;9.90;99.90;;;;;;4950810;28;19926;-54
2022/10/25 00:50:53;;;;;;;;;;;9.90;99.90;;;;;;4933630;29;20553;-53
2022/10/25 00:53:22;;;;;;;;;;;9.80;99.90;;;;;;4948099;28;19934;-53
2022/10/25 00:56:02;;;;;;;;;;;9.80;99.90;;;;;;4952062;28;19926;-53
2022/10/25 00:58:32;;;;;;;;;;;9.80;99.90;;;;;;4950506;29;19938;-54
2022/10/25 01:01:01;;;;;;;;;;;9.80;99.90;;;;;;4949254;29;19933;-53
2022/10/25 01:03:29;;;;;;;;;;;9.80;99.90;;;;;;4946808;29;19937;-53
2022/10/25 01:05:58;;;;;;;;;;;9.70;99.90;;;;;;4947016;29;19959;-53
2022/10/25 01:08:26;;;;;;;;;;;9.70;99.90;;;;;;4939921;28;19927;-53
2022/10/25 01:10:53;;;;;;;;;;;9.70;99.90;;;;;;4951187;28;19941;-53
2022/10/25 01:13:21;;;;;;;;;;;9.70;99.90;;;;;;4948408;28;20298;-56
2022/10/25 01:15:54;;;;;;;;;;;9.70;99.90;;;;;;4949314;28;19934;-55
2022/10/25 01:18:27;;;;;;;;;;;9.70;99.90;;;;;;4951175;28;20298;-54
2022/10/25 01:20:55;;;;;;;;;;;9.60;99.90;;;;;;4952162;29;19930;-55
2022/10/25 01:23:41;;;;;;;;;;;9.70;99.90;;;;;;4941330;29;19962;-56
2022/10/25 01:26:18;;;;;;;;;;;9.60;99.90;;;;;;4934434;29;19927;-55
2022/10/25 01:28:48;;;;;;;;;;;9.60;99.90;;;;;;4951277;28;19926;-53
2022/10/25 01:31:21;;;;;;;;;;;9.60;99.90;;;;;;4944705;29;19926;-53
2022/10/25 01:34:01;;;;;;;;;;;9.60;99.90;;;;;;4952832;29;19930;-53
2022/10/25 01:36:34;;;;;;;;;;;9.60;99.90;;;;;;4953484;29;19926;-53
2022/10/25 01:39:09;;;;;;;;;;;9.60;99.90;;;;;;4943745;29;19926;-53
2022/10/25 01:41:48;;;;;;;;;;;9.60;99.90;;;;;;4950038;29;20596;-53
2022/10/25 01:44:21;;;;;;;;;;;9.60;99.90;;;;;;4953660;29;19926;-53
2022/10/25 01:46:57;;;;;;;;;;;9.60;99.90;;;;;;4953188;29;20298;-53
2022/10/25 01:49:35;;;;;;;;;;;9.60;99.90;;;;;;4953038;29;19934;-54
2022/10/25 01:52:03;;;;;;;;;;;9.60;99.90;;;;;;4953229;28;19967;-53
2022/10/25 01:54:30;;;;;;;;;;;9.60;99.90;;;;;;4953168;29;20373;-54
2022/10/25 01:57:16;;;;;;;;;;;9.50;99.90;;;;;;4952312;28;19935;-54
2022/10/25 01:59:53;;;;;;;;;;;9.50;99.90;;;;;;4954171;29;19930;-54
2022/10/25 02:02:39;;;;;;;;;;;9.50;99.90;;;;;;4954696;29;19949;-53
2022/10/25 02:05:13;;;;;;;;;;;9.50;99.90;;;;;;4954685;29;19933;-53
2022/10/25 02:07:42;;;;;;;;;;;9.50;99.90;;;;;;4954828;29;19934;-53
2022/10/25 02:10:19;;;;;;;;;;;9.50;99.90;;;;;;4951106;29;20395;-53
2022/10/25 02:13:05;;;;;;;;;;;9.50;99.90;;;;;;4954213;29;19927;-53
2022/10/25 02:15:40;;;;;;;;;;;9.50;99.90;;;;;;4953672;29;20389;-53
2022/10/25 02:18:13;;;;;;;;;;;9.60;99.90;;;;;;4954614;28;20295;-53
2022/10/25 02:20:42;;;;;;;;;;;9.50;99.90;;;;;;4954389;29;19934;-53
2022/10/25 02:23:14;;;;;;;;;;;9.50;99.90;;;;;;4954406;29;19926;-53
2022/10/25 02:25:41;;;;;;;;;;;9.50;99.90;;;;;;4954738;29;20318;-54
2022/10/25 02:28:10;;;;;;;;;;;9.50;99.90;;;;;;4954830;29;19926;-54
2022/10/25 02:30:38;;;;;;;;;;;9.50;99.90;;;;;;4954041;28;20386;-54
2022/10/25 02:33:06;;;;;;;;;;;9.50;99.90;;;;;;4954136;29;19957;-53
2022/10/25 02:35:33;;;;;;;;;;;9.50;99.90;;;;;;4953785;28;19926;-54
2022/10/25 02:38:01;;;;;;;;;;;9.50;99.90;;;;;;4954233;29;19926;-53
2022/10/25 02:40:28;;;;;;;;;;;9.50;99.90;;;;;;4954205;29;19933;-54
2022/10/25 02:42:56;;;;;;;;;;;9.50;99.90;;;;;;4954129;29;19934;-56
2022/10/25 02:45:23;;;;;;;;;;;9.50;99.90;;;;;;4954214;29;19934;-53
2022/10/25 02:47:51;;;;;;;;;;;9.40;99.90;;;;;;4953993;29;19926;-54
2022/10/25 02:50:18;;;;;;;;;;;9.40;99.90;;;;;;4953744;28;20374;-54
2022/10/25 02:52:45;;;;;;;;;;;9.40;99.90;;;;;;4953894;29;19926;-54
2022/10/25 02:55:13;;;;;;;;;;;9.40;99.90;;;;;;4954127;29;19935;-53
2022/10/25 02:57:40;;;;;;;;;;;9.40;99.90;;;;;;4954095;29;19926;-54
2022/10/25 03:00:08;;;;;;;;;;;9.40;99.90;;;;;;4954010;29;19934;-54
2022/10/25 03:02:36;;;;;;;;;;;9.30;99.90;;;;;;4953840;29;19926;-54
2022/10/25 03:05:03;;;;;;;;;;;9.30;99.90;;;;;;4953753;28;20394;-53
2022/10/25 03:07:30;;;;;;;;;;;9.30;99.90;;;;;;4954689;28;19926;-54
2022/10/25 03:09:58;;;;;;;;;;;9.30;99.90;;;;;;4953797;29;19933;-54
2022/10/25 03:12:25;;;;;;;;;;;9.20;99.90;;;;;;4953828;29;19926;-55
2022/10/25 03:14:52;;;;;;;;;;;9.30;99.90;;;;;;4953799;29;19963;-53
2022/10/25 03:17:20;;;;;;;;;;;9.30;99.90;;;;;;4953756;29;19927;-53
2022/10/25 03:19:47;;;;;;;;;;;9.30;99.90;;;;;;4953588;29;19930;-54
2022/10/25 03:22:14;;;;;;;;;;;9.30;99.90;;;;;;4953812;29;19949;-54
2022/10/25 03:24:42;;;;;;;;;;;9.20;99.90;;;;;;4953747;29;20290;-54
2022/10/25 03:27:09;;;;;;;;;;;9.30;99.90;;;;;;4953818;29;19926;-55
2022/10/25 03:29:36;;;;;;;;;;;9.20;99.90;;;;;;4936473;29;19946;-54
2022/10/25 03:32:06;;;;;;;;;;;9.30;99.90;;;;;;4952371;29;19933;-54
2022/10/25 03:34:33;;;;;;;;;;;9.20;99.90;;;;;;4953469;29;20378;-54
2022/10/25 03:37:01;;;;;;;;;;;9.20;99.90;;;;;;4953606;29;19927;-54
2022/10/25 03:39:28;;;;;;;;;;;9.30;99.90;;;;;;4953749;29;19926;-53
2022/10/25 03:41:56;;;;;;;;;;;9.20;99.90;;;;;;4952266;29;19934;-54
2022/10/25 03:44:23;;;;;;;;;;;9.20;99.90;;;;;;4953196;29;20501;-54
2022/10/25 03:46:51;;;;;;;;;;;9.20;99.90;;;;;;4953575;29;19927;-54
2022/10/25 03:49:18;;;;;;;;;;;9.30;99.90;;;;;;4952571;29;19933;-54
2022/10/25 03:51:45;;;;;;;;;;;9.20;99.90;;;;;;4953218;29;19948;-55
2022/10/25 03:54:13;;;;;;;;;;;9.20;99.90;;;;;;4953672;29;19927;-54
2022/10/25 03:56:40;;;;;;;;;;;9.20;99.90;;;;;;4953439;29;19926;-55
2022/10/25 03:59:07;;;;;;;;;;;9.20;99.90;;;;;;4952316;29;19930;-57
2022/10/25 04:01:35;;;;;;;;;;;9.20;99.90;;;;;;4953363;29;19930;-55
2022/10/25 04:04:02;;;;;;;;;;;9.20;99.90;;;;;;4953052;29;19928;-54
2022/10/25 04:06:30;;;;;;;;;;;9.20;99.90;;;;;;4952950;29;19933;-56
2022/10/25 04:08:57;;;;;;;;;;;9.20;99.90;;;;;;4953465;29;19933;-56
2022/10/25 04:11:24;;;;;;;;;;;9.10;99.90;;;;;;4953192;28;19937;-53
2022/10/25 04:13:52;;;;;;;;;;;9.10;99.90;;;;;;4936293;29;20366;-55
2022/10/25 04:16:19;;;;;;;;;;;9.10;99.90;;;;;;4953372;29;19949;-57
2022/10/25 04:18:48;;;;;;;;;;;9.10;99.90;;;;;;4952067;28;20386;-56
2022/10/25 04:21:16;;;;;;;;;;;9.00;99.90;;;;;;4955623;29;19926;-56
2022/10/25 04:23:43;;;;;;;;;;;9.10;99.90;;;;;;4955590;29;19930;-56
2022/10/25 04:26:13;;;;;;;;;;;9.00;99.90;;;;;;4956586;29;19927;-56
2022/10/25 04:28:40;;;;;;;;;;;9.00;99.90;;;;;;4956573;29;19934;-56
2022/10/25 04:31:08;;;;;;;;;;;9.00;99.90;;;;;;4956390;29;19927;-56
2022/10/25 04:33:35;;;;;;;;;;;9.00;99.90;;;;;;4956490;29;19937;-56
2022/10/25 04:36:03;;;;;;;;;;;8.90;99.90;;;;;;4956044;29;19930;-56
2022/10/25 04:38:30;;;;;;;;;;;8.90;99.90;;;;;;4956382;29;19933;-56
2022/10/25 04:40:58;;;;;;;;;;;8.90;99.90;;;;;;4956430;28;19933;-55
2022/10/25 04:43:27;;;;;;;;;;;8.90;99.90;;;;;;4956477;29;19926;-57
2022/10/25 04:45:54;;;;;;;;;;;8.90;99.90;;;;;;4956257;29;20096;-54
2022/10/25 04:48:22;;;;;;;;;;;8.90;99.90;;;;;;4942338;28;19953;-54
2022/10/25 04:50:49;;;;;;;;;;;8.80;99.90;;;;;;4934376;29;19931;-54
2022/10/25 04:53:16;;;;;;;;;;;8.80;99.90;;;;;;4932313;29;19968;-54
2022/10/25 04:55:53;;;;;;;;;;;8.80;99.90;;;;;;4934656;29;20318;-54
2022/10/25 04:58:21;;;;;;;;;;;8.70;99.90;;;;;;4948415;29;19933;-55
2022/10/25 05:00:48;;;;;;;;;;;8.80;99.90;;;;;;4951788;29;20409;-53
2022/10/25 05:03:16;;;;;;;;;;;8.70;99.90;;;;;;4943314;29;19937;-54
2022/10/25 05:05:43;;;;;;;;;;;8.70;99.90;;;;;;4940951;28;20391;-54
2022/10/25 05:08:11;;;;;;;;;;;8.70;99.90;;;;;;4945528;29;19957;-53
2022/10/25 05:10:38;;;;;;;;;;;8.60;99.90;;;;;;4949597;29;19926;-53
2022/10/25 05:13:06;;;;;;;;;;;8.60;99.90;;;;;;4940383;29;19933;-53
2022/10/25 05:15:33;;;;;;;;;;;8.60;99.90;;;;;;4931804;29;20196;-54
2022/10/25 05:18:01;;;;;;;;;;;8.60;99.90;;;;;;4940120;29;20299;-53
2022/10/25 05:20:28;;;;;;;;;;;8.60;99.90;;;;;;4929805;29;19928;-53
2022/10/25 05:22:56;;;;;;;;;;;8.60;99.90;;;;;;4939047;29;20385;-53
2022/10/25 05:25:23;;;;;;;;;;;8.50;99.90;;;;;;4930787;29;20382;-53
2022/10/25 05:27:50;;;;;;;;;;;8.50;99.90;;;;;;4935457;29;19933;-53
2022/10/25 05:30:18;;;;;;;;;;;8.50;99.90;;;;;;4947931;28;19934;-53
2022/10/25 05:32:45;;;;;;;;;;;8.40;99.90;;;;;;4946738;29;19937;-55
2022/10/25 05:35:13;;;;;;;;;;;8.40;99.90;;;;;;4943248;29;20301;-53
2022/10/25 05:37:40;;;;;;;;;;;8.30;99.90;;;;;;4947639;28;19930;-53
2022/10/25 05:40:08;;;;;;;;;;;8.30;99.90;;;;;;4947576;29;19927;-53
2022/10/25 05:42:36;;;;;;;;;;;8.20;99.90;;;;;;4948148;28;19931;-53
2022/10/25 05:45:03;;;;;;;;;;;8.20;99.90;;;;;;4946769;28;19933;-53
2022/10/25 05:47:31;;;;;;;;;;;8.10;99.90;;;;;;4948321;28;19926;-53
2022/10/25 05:50:00;;;;;;;;;;;8.10;99.90;;;;;;4945215;29;19938;-54
2022/10/25 05:52:27;;;;;;;;;;;8.00;99.90;;;;;;4935122;29;20440;-54
2022/10/25 05:54:55;;;;;;;;;;;8.00;99.90;;;;;;4945401;28;20306;-53
2022/10/25 05:57:22;;;;;;;;;;;7.90;99.90;;;;;;4947913;29;19927;-53
2022/10/25 05:59:50;;;;;;;;;;;7.90;99.90;;;;;;4948250;29;19926;-53
2022/10/25 06:02:17;;;;;;;;;;;7.90;99.90;;;;;;4947209;29;20370;-53
2022/10/25 06:04:44;;;;;;;;;;;7.90;99.90;;;;;;4948320;28;20225;-53
2022/10/25 06:07:18;;;;;;;;;;;7.90;99.90;;;;;;4947815;29;20749;-53
2022/10/25 06:09:46;;;;;;;;;;;7.30;99.90;;;;;;4945201;28;19934;-54
2022/10/25 06:12:13;;;;;;;;;;;7.70;99.90;;;;;;4946619;29;19927;-54
2022/10/25 06:14:41;;;;;;;;;;;7.70;99.90;;;;;;4945781;28;19938;-54
2022/10/25 06:17:08;;;;;;;;;;;7.70;99.90;;;;;;4945032;29;19933;-55
2022/10/25 06:19:35;;;;;;;;;;;7.60;99.90;;;;;;4941037;28;19931;-53
2022/10/25 06:22:03;;;;;;;;;;;7.60;99.90;;;;;;4943734;28;19942;-53
2022/10/25 06:24:30;;;;;;;;;;;7.60;99.90;;;;;;4946890;29;19930;-53
2022/10/25 06:26:58;;;;;;;;;;;7.60;99.90;;;;;;4945462;28;19934;-53
2022/10/25 06:29:26;;;;;;;;;;;7.90;99.90;;;;;;4937221;28;19934;-54
2022/10/25 06:31:54;;;;;;;;;;;7.50;99.90;;;;;;4940360;28;20379;-57
2022/10/25 06:34:21;;;;;;;;;;;7.40;99.90;;;;;;4946679;29;19934;-54
2022/10/25 06:36:48;;;;;;;;;;;7.40;99.90;;;;;;4935627;29;19927;-53
2022/10/25 06:39:16;;;;;;;;;;;7.40;99.90;;;;;;4944111;28;19941;-53
2022/10/25 06:41:43;;;;;;;;;;;7.30;99.90;;;;;;4937393;28;19926;-53
2022/10/25 06:44:11;;;;;;;;;;;7.30;99.90;;;;;;4946156;29;19926;-56
2022/10/25 06:46:39;;;;;;;;;;;7.30;99.90;;;;;;4944268;28;19933;-55
2022/10/25 06:49:26;;;;;;;;;;;7.20;99.90;;;;;;4947390;28;19933;-55
2022/10/25 06:51:54;;;;;;;;;;;7.20;99.90;;;;;;4946881;28;19927;-56
2022/10/25 06:54:21;;;;;;;;;;;7.20;99.90;;;;;;4946375;29;20390;-53
2022/10/25 06:56:49;;;;;;;;;;;7.20;99.90;;;;;;4942738;29;19933;-59
2022/10/25 06:59:18;;;;;;;;;;;7.20;99.90;;;;;;4945007;28;20310;-55
2022/10/25 07:01:45;;;;;;;;;;;7.20;99.90;;;;;;4945402;29;19930;-56
2022/10/25 07:04:13;;;;;;;;;;;7.20;99.90;;;;;;4946911;29;19933;-54
2022/10/25 07:06:40;;;;;;;;;;;5.90;99.90;;;;;;4939148;29;20267;-55
2022/10/25 07:09:09;;;;;;;;;;;7.10;99.90;;;;;;4941362;29;19930;-56
2022/10/25 07:11:37;;;;;;;;;;;7.20;99.90;;;;;;4936422;29;19931;-55
2022/10/25 07:14:04;;;;;;;;;;;7.10;99.90;;;;;;4943065;29;19931;-55
2022/10/25 07:16:32;;;;;;;;;;;7.20;99.90;;;;;;4945744;29;19933;-56
2022/10/25 07:19:00;;;;;;;;;;;7.20;99.90;;;;;;4944520;29;19942;-54
2022/10/25 07:21:29;;;;;;;;;;;7.20;99.90;;;;;;4946526;29;19930;-54
2022/10/25 07:23:56;;;;;;;;;;;7.20;99.90;;;;;;4945359;29;20744;-54
2022/10/25 07:26:25;;;;;;;;;;;7.30;99.90;;;;;;4944181;28;20305;-54
2022/10/25 07:28:54;;;;;;;;;;;7.40;99.90;;;;;;4931091;29;21864;-54
2022/10/25 07:31:23;;;;;;;;;;;7.50;99.90;;;;;;4932176;28;19926;-53
2022/10/25 07:33:51;;;;;;;;;;;7.70;99.90;;;;;;4940002;29;19938;-53
2022/10/25 07:36:19;;;;;;;;;;;7.90;99.90;;;;;;4931251;29;19926;-55
2022/10/25 07:38:46;;;;;;;;;;;8.00;99.90;;;;;;4942651;28;19930;-54
2022/10/25 07:41:14;;;;;;;;;;;8.30;99.90;;;;;;4943816;29;19930;-54
2022/10/25 07:43:42;;;;;;;;;;;8.50;99.90;;;;;;4930579;29;19931;-54
2022/10/25 07:46:09;;;;;;;;;;;8.60;99.90;;;;;;4928069;29;19938;-54
2022/10/25 07:48:37;;;;;;;;;;;8.80;99.90;;;;;;4938498;29;19933;-55
2022/10/25 07:51:09;;;;;;;;;;;9.00;99.90;;;;;;4939036;29;19927;-53
2022/10/25 07:53:37;;;;;;;;;;;9.10;99.90;;;;;;4943777;28;19926;-57
2022/10/25 07:56:05;;;;;;;;;;;9.20;99.90;;;;;;4945470;29;20567;-55
2022/10/25 07:58:33;;;;;;;;;;;9.30;99.90;;;;;;4945201;28;19926;-54
2022/10/25 08:01:01;;;;;;;;;;;9.30;99.90;;;;;;4938550;28;19927;-54
2022/10/25 08:03:30;;;;;;;;;;;9.40;99.90;;;;;;4951016;28;19933;-54
2022/10/25 08:05:58;;;;;;;;;;;9.40;99.90;;;;;;4951389;28;19934;-53
2022/10/25 08:08:25;;;;;;;;;;;9.50;99.90;;;;;;4938033;29;19934;-53
2022/10/25 08:10:53;;;;;;;;;;;9.50;99.90;;;;;;4934258;29;19931;-53
2022/10/25 08:13:21;;;;;;;;;;;9.60;99.90;;;;;;4943617;28;19927;-53
2022/10/25 08:15:52;;;;;;;;;;;9.60;99.90;;;;;;4934458;29;19927;-53
2022/10/25 08:18:20;;;;;;;;;;;9.60;99.90;;;;;;4944494;29;19937;-53
2022/10/25 08:20:47;;;;;;;;;;;9.70;99.90;;;;;;4950136;28;19926;-53
2022/10/25 08:23:30;;;;;;;;;;;9.70;99.90;;;;;;4946737;29;19926;-54
2022/10/25 08:25:58;;;;;;;;;;;9.70;99.90;;;;;;4952409;28;19930;-53
2022/10/25 08:28:26;;;;;;;;;;;9.80;99.90;;;;;;4943828;29;19926;-55
2022/10/25 08:30:54;;;;;;;;;;;9.80;99.90;;;;;;4938339;29;19943;-53
2022/10/25 08:33:22;;;;;;;;;;;9.80;99.90;;;;;;4948746;29;19949;-53
2022/10/25 08:35:49;;;;;;;;;;;10.00;99.90;;;;;;4952791;28;20378;-52
2022/10/25 08:38:17;;;;;;;;;;;10.00;99.90;;;;;;4952550;29;19930;-53
2022/10/25 08:40:44;;;;;;;;;;;10.10;99.90;;;;;;4953011;29;20421;-53
2022/10/25 08:43:24;;;;;;;;;;;10.20;99.90;;;;;;4946308;28;19933;-53
2022/10/25 08:46:01;;;;;;;;;;;10.30;99.90;;;;;;4938287;29;20306;-53
2022/10/25 08:48:34;;;;;;;;;;;10.40;99.90;;;;;;4945798;28;20287;-53
2022/10/25 08:51:04;;;;;;;;;;;10.50;99.90;;;;;;4951773;29;19931;-54
2022/10/25 08:53:36;;;;;;;;;;;10.60;99.90;;;;;;4951336;29;19933;-53
2022/10/25 08:56:05;;;;;;;;;;;10.70;99.90;;;;;;4951394;29;19927;-53
2022/10/25 08:58:48;;;;;;;;;;;10.70;99.90;;;;;;4949159;29;20294;-54
2022/10/25 09:01:19;;;;;;;;;;;10.80;99.90;;;;;;4941503;29;20574;-55
2022/10/25 09:03:47;;;;;;;;;;;10.90;99.90;;;;;;4946853;28;19953;-54
2022/10/25 09:06:26;;;;;;;;;;;11.00;99.90;;;;;;4946748;28;20297;-56
2022/10/25 09:09:17;;;;;;;;;;;11.00;99.90;;;;;;4945997;29;19933;-53
2022/10/25 09:11:56;;;;;;;;;;;11.10;99.90;;;;;;4947262;29;20389;-56
2022/10/25 09:14:27;;;;;;;;;;;11.20;99.90;;;;;;4934189;29;19938;-53
2022/10/25 09:16:58;;;;;;;;;;;11.30;99.90;;;;;;4948676;29;19953;-54
2022/10/25 09:19:38;;;;;;;;;;;11.30;99.90;;;;;;4949754;28;20321;-53
2022/10/25 09:22:29;;;;;;;;;;;11.30;99.90;;;;;;4948655;29;20294;-53
2022/10/25 09:25:01;;;;;;;;;;;11.40;99.90;;;;;;4933808;28;19930;-53
2022/10/25 09:27:29;;;;;;;;;;;11.50;99.90;;;;;;4944556;28;19937;-54
2022/10/25 09:30:02;;;;;;;;;;;11.60;99.90;;;;;;4943973;29;20287;-53
2022/10/25 09:32:33;;;;;;;;;;;11.60;99.90;;;;;;4950508;29;19926;-54
2022/10/25 09:35:01;;;;;;;;;;;11.70;99.90;;;;;;4951703;28;19927;-54
2022/10/25 09:37:32;;;;;;;;;;;11.70;99.90;;;;;;4951663;29;19927;-54
2022/10/25 09:40:02;;;;;;;;;;;11.80;99.90;;;;;;4951468;29;19934;-54
2022/10/25 09:42:31;;;;;;;;;;;11.80;99.90;;;;;;4950648;29;19933;-53
2022/10/25 09:45:28;;;;;;;;;;;11.80;99.90;;;;;;4948780;29;19927;-53
2022/10/25 09:48:15;;;;;;;;;;;11.90;99.90;;;;;;4938015;28;19938;-54
2022/10/25 09:50:42;;;;;;;;;;;11.90;99.90;;;;;;4943066;28;19927;-53
2022/10/25 09:53:13;;;;;;;;;;;12.00;99.90;;;;;;4951255;29;19933;-53
2022/10/25 09:55:45;;;;;;;;;;;12.10;99.90;;;;;;4951710;28;20341;-55
2022/10/25 09:58:16;;;;;;;;;;;12.20;99.90;;;;;;4950714;28;19934;-54
2022/10/25 10:00:44;;;;;;;;;;;12.20;99.90;;;;;;4935371;28;19927;-54
2022/10/25 10:03:12;;;;;;;;;;;12.30;99.90;;;;;;4950007;29;20394;-54
2022/10/25 10:05:45;;;;;;;;;;;12.40;99.90;;;;;;4950436;28;20405;-55
2022/10/25 10:08:12;;;;;;;;;;;12.50;99.90;;;;;;4951337;28;19926;-53
2022/10/25 10:10:40;;;;;;;;;;;12.50;99.90;;;;;;4951663;29;20389;-56
2022/10/25 10:13:27;;;;;;;;;;;12.60;99.90;;;;;;4951420;29;20381;-54
2022/10/25 10:15:56;;;;;;;;;;;12.70;99.90;;;;;;4950070;29;19930;-53
2022/10/25 10:18:25;;;;;;;;;;;12.80;99.90;;;;;;4945049;28;19938;-53
2022/10/25 10:20:56;;;;;;;;;;;12.80;99.90;;;;;;4944288;28;19926;-53
2022/10/25 10:23:23;;;;;;;;;;;13.00;99.90;;;;;;4951322;29;19933;-53
2022/10/25 10:25:51;;;;;;;;;;;13.00;99.90;;;;;;4948513;28;19937;-57
2022/10/25 10:28:21;;;;;;;;;;;13.10;99.90;;;;;;4943646;28;19927;-56
2022/10/25 10:30:56;;;;;;;;;;;13.20;99.90;;;;;;4949883;29;19926;-56
2022/10/25 10:33:27;;;;;;;;;;;13.30;99.90;;;;;;4946584;29;20327;-57
2022/10/25 10:35:55;;;;;;;;;;;13.50;99.90;;;;;;4933672;29;19930;-54
2022/10/25 10:38:26;;;;;;;;;;;13.50;99.90;;;;;;4946377;28;19937;-54
2022/10/25 10:41:13;;;;;;;;;;;13.60;99.90;;;;;;4946659;29;19926;-56
2022/10/25 10:43:41;;;;;;;;;;;13.70;99.90;;;;;;4942210;29;19927;-53
2022/10/25 10:46:12;;;;;;;;;;;13.70;99.90;;;;;;4947682;29;19931;-54
2022/10/25 10:48:44;;;;;;;;;;;13.80;99.90;;;;;;4926126;28;19934;-54
2022/10/25 10:51:14;;;;;;;;;;;13.80;99.90;;;;;;4945464;28;19926;-53
2022/10/25 10:54:11;;;;;;;;;;;13.90;99.90;;;;;;4945301;28;20490;-53
2022/10/25 10:56:39;;;;;;;;;;;13.90;99.90;;;;;;4949470;29;19926;-53
2022/10/25 10:59:22;;;;;;;;;;;14.00;99.90;;;;;;4950379;28;19926;-53
2022/10/25 11:01:50;;;;;;;;;;;14.10;99.90;;;;;;4947124;28;20294;-53
2022/10/25 11:04:17;;;;;;;;;;;14.30;99.90;;;;;;4944955;29;19930;-53
2022/10/25 11:06:47;;;;;;;;;;;14.40;99.90;;;;;;4937794;29;20298;-54
2022/10/25 11:09:19;;;;;;;;;;;14.50;99.90;;;;;;4946804;28;19927;-53
2022/10/25 11:12:04;;;;;;;;;;;14.60;99.90;;;;;;4946381;29;19930;-53
2022/10/25 11:14:31;;;;;;;;;;;14.70;99.90;;;;;;4928689;29;20442;-54
2022/10/25 11:17:02;;;;;;;;;;;14.80;99.90;;;;;;4930198;29;19953;-54
2022/10/25 11:19:48;;;;;;;;;;;14.90;99.90;;;;;;4950026;29;19931;-53
2022/10/25 11:22:18;;;;;;;;;;;15.10;99.90;;;;;;4945518;29;19927;-53
2022/10/25 11:24:58;;;;;;;;;;;15.40;99.90;;;;;;4950578;28;19930;-54
2022/10/25 11:27:35;;;;;;;;;;;15.70;99.90;;;;;;4948936;29;19933;-53
2022/10/25 11:30:02;;;;;;;;;;;15.90;99.90;;;;;;4951784;28;19927;-54
2022/10/25 11:32:30;;;;;;;;;;;16.00;99.90;;;;;;4952766;28;19934;-54
2022/10/25 11:35:17;;;;;;;;;;;16.20;99.90;;;;;;4953180;29;19927;-54
2022/10/25 11:37:52;;;;;;;;;;;16.40;99.90;;;;;;4948677;29;19927;-54
2022/10/25 11:40:21;;;;;;;;;;;16.50;99.90;;;;;;4954401;29;20309;-53
2022/10/25 11:43:04;;;;;;;;;;;16.60;99.90;;;;;;4952590;28;20544;-54
2022/10/25 11:45:40;;;;;;;;;;;16.70;99.90;;;;;;4952383;28;19933;-53
2022/10/25 11:48:16;;;;;;;;;;;16.80;99.90;;;;;;4951691;28;19927;-53
2022/10/25 11:51:09;;;;;;;;;;;16.80;99.90;;;;;;4935202;29;19934;-54
2022/10/25 11:53:45;;;;;;;;;;;16.70;99.90;;;;;;4947845;28;19939;-56
2022/10/25 11:56:13;;;;;;;;;;;16.70;99.90;;;;;;4953662;29;19926;-56
2022/10/25 11:58:48;;;;;;;;;;;16.70;99.90;;;;;;4953900;29;19927;-56
2022/10/25 12:01:34;;;;;;;;;;;16.90;99.90;;;;;;4953837;29;19934;-56
2022/10/25 12:04:20;;;;;;;;;;;17.00;99.90;;;;;;4952526;28;19933;-55
2022/10/25 12:06:55;;;;;;;;;;;17.10;99.90;;;;;;4952487;28;20513;-54
2022/10/25 12:09:25;;;;;;;;;;;17.30;99.90;;;;;;4952252;29;20688;-53
2022/10/25 12:12:13;;;;;;;;;;;17.40;99.90;;;;;;4952573;28;19927;-56
2022/10/25 12:14:45;;;;;;;;;;;17.50;99.90;;;;;;4934004;29;19927;-56
2022/10/25 12:17:20;;;;;;;;;;;17.50;99.90;;;;;;4934600;29;19927;-58
2022/10/25 12:19:49;;;;;;;;;;;17.30;99.90;;;;;;4953386;29;19937;-57
2022/10/25 12:22:18;;;;;;;;;;;17.30;99.90;;;;;;4951947;29;19930;-56
2022/10/25 12:24:59;;;;;;;;;;;17.20;99.90;;;;;;4953437;29;19934;-56
2022/10/25 12:27:28;;;;;;;;;;;17.20;99.90;;;;;;4951933;29;20007;-57
2022/10/25 12:29:59;;;;;;;;;;;17.10;99.90;;;;;;4953435;29;19926;-57
2022/10/25 12:32:39;;;;;;;;;;;16.90;99.90;;;;;;4953097;29;19934;-56
2022/10/25 12:35:17;;;;;;;;;;;16.70;99.90;;;;;;4951652;29;19934;-56
2022/10/25 12:37:55;;;;;;;;;;;16.70;99.90;;;;;;4950916;29;19933;-56
2022/10/25 12:40:27;;;;;;;;;;;16.90;99.90;;;;;;4951053;28;20494;-56
2022/10/25 12:43:09;;;;;;;;;;;17.40;99.90;;;;;;4952375;29;19941;-56
2022/10/25 12:45:51;;;;;;;;;;;18.00;99.90;;;;;;4953190;29;19933;-56
2022/10/25 12:48:36;;;;;;;;;;;18.50;99.90;;;;;;4952680;28;19926;-56
2022/10/25 12:51:19;;;;;;;;;;;18.80;99.90;;;;;;4953202;29;19926;-57
2022/10/25 12:53:53;;;;;;;;;;;19.10;99.90;;;;;;4938895;29;19938;-57
2022/10/25 12:56:35;;;;;;;;;;;19.40;99.90;;;;;;4933803;29;20374;-57
2022/10/25 12:59:06;;;;;;;;;;;19.50;99.90;;;;;;4947415;29;20296;-57
2022/10/25 13:01:54;;;;;;;;;;;19.40;99.90;;;;;;4933874;29;19931;-56
2022/10/25 13:04:30;;;;;;;;;;;19.00;99.90;;;;;;4940978;28;19930;-56
2022/10/25 13:06:58;;;;;;;;;;;18.40;99.90;;;;;;4946911;29;19927;-56
2022/10/25 13:09:30;;;;;;;;;;;17.80;99.90;;;;;;4947286;29;20390;-56
2022/10/25 13:12:03;;;;;;;;;;;17.40;99.90;;;;;;4932001;29;19927;-56
2022/10/25 13:14:30;;;;;;;;;;;16.90;99.90;;;;;;4939097;28;19927;-56
2022/10/25 13:17:19;;;;;;;;;;;16.60;99.90;;;;;;4952354;29;19949;-53
2022/10/25 13:19:47;;;;;;;;;;;16.30;99.90;;;;;;4948710;28;19933;-54
2022/10/25 13:22:32;;;;;;;;;;;16.00;99.90;;;;;;4949756;29;19942;-54
2022/10/25 13:25:11;;;;;;;;;;;15.80;99.90;;;;;;4933193;29;19926;-53
2022/10/25 13:27:58;;;;;;;;;;;15.80;99.90;;;;;;4936689;28;19926;-53
2022/10/25 13:30:27;;;;;;;;;;;15.80;99.90;;;;;;4952344;29;19927;-56
2022/10/25 13:33:14;;;;;;;;;;;16.30;99.90;;;;;;4933872;28;19935;-56
2022/10/25 13:35:44;;;;;;;;;;;16.60;99.90;;;;;;4934410;29;19931;-56
2022/10/25 13:38:18;;;;;;;;;;;16.60;99.90;;;;;;4944796;29;19934;-56
2022/10/25 13:41:05;;;;;;;;;;;16.60;99.90;;;;;;4932963;29;20379;-56
2022/10/25 13:43:32;;;;;;;;;;;16.70;99.90;;;;;;4944182;29;20382;-56
2022/10/25 13:46:00;;;;;;;;;;;16.70;99.90;;;;;;4951950;29;19927;-57
2022/10/25 13:48:28;;;;;;;;;;;16.60;99.90;;;;;;4951477;28;20302;-56
2022/10/25 13:50:58;;;;;;;;;;;16.50;99.90;;;;;;4952067;29;19927;-56
2022/10/25 13:53:37;;;;;;;;;;;16.50;99.90;;;;;;4942797;28;19946;-56
2022/10/25 13:56:04;;;;;;;;;;;16.40;99.90;;;;;;4932418;29;19926;-55
2022/10/25 13:58:32;;;;;;;;;;;16.30;99.90;;;;;;4941999;29;19927;-55
2022/10/25 14:01:15;;;;;;;;;;;16.30;99.90;;;;;;4945099;28;19930;-56
2022/10/25 14:03:49;;;;;;;;;;;16.10;99.90;;;;;;4948159;29;19926;-55
2022/10/25 14:06:24;;;;;;;;;;;15.90;99.90;;;;;;4949509;29;19926;-55
2022/10/25 14:08:57;;;;;;;;;;;15.70;99.90;;;;;;4941063;28;19933;-55
2022/10/25 14:11:36;;;;;;;;;;;15.60;99.90;;;;;;4942688;29;19938;-55
2022/10/25 14:14:10;;;;;;;;;;;15.60;99.90;;;;;;4951007;29;19927;-55
2022/10/25 14:16:52;;;;;;;;;;;15.60;99.90;;;;;;4950539;29;19926;-58
2022/10/25 14:19:33;;;;;;;;;;;15.70;99.90;;;;;;4951185;29;19938;-54
2022/10/25 14:22:10;;;;;;;;;;;15.80;99.90;;;;;;4951020;28;19937;-55
2022/10/25 14:24:39;;;;;;;;;;;15.90;99.90;;;;;;4941380;29;19934;-55
2022/10/25 14:27:24;;;;;;;;;;;15.80;99.90;;;;;;4951420;28;20370;-55
2022/10/25 14:29:51;;;;;;;;;;;15.80;99.90;;;;;;4932204;29;20302;-55
2022/10/25 14:32:20;;;;;;;;;;;15.70;99.90;;;;;;4933465;29;19938;-55
2022/10/25 14:34:49;;;;;;;;;;;15.70;99.90;;;;;;4941071;28;20395;-55
2022/10/25 14:37:17;;;;;;;;;;;15.70;99.90;;;;;;4949334;29;19931;-55
2022/10/25 14:39:51;;;;;;;;;;;15.70;99.90;;;;;;4951230;29;19926;-55
2022/10/25 14:42:19;;;;;;;;;;;15.80;99.90;;;;;;4950623;29;19927;-56
2022/10/25 14:44:47;;;;;;;;;;;15.70;99.90;;;;;;4950921;29;19930;-55
2022/10/25 14:47:28;;;;;;;;;;;15.80;99.90;;;;;;4948313;29;19926;-57